createdAt,value
2022-09-21T00:00:36.556Z,1005.22
2022-09-21T00:01:36.533Z,1005.25
2022-09-21T00:02:36.482Z,1005.26
2022-09-21T00:03:36.628Z,1005.29
2022-09-21T00:04:36.292Z,1005.29
2022-09-21T00:05:36.215Z,1005.28
2022-09-21T00:06:36.166Z,1005.30
2022-09-21T00:07:36.094Z,1005.35
2022-09-21T00:08:36.014Z,1005.35
2022-09-21T00:09:36.002Z,1005.34
2022-09-21T00:10:35.892Z,1005.34
2022-09-21T00:11:35.858Z,1005.33
2022-09-21T00:12:35.772Z,1005.32
2022-09-21T00:13:35.692Z,1005.27
2022-09-21T00:14:35.641Z,1005.31
2022-09-21T00:15:35.603Z,1005.28
2022-09-21T00:16:35.608Z,1005.31
2022-09-21T00:17:35.444Z,1005.29
2022-09-21T00:18:35.401Z,1005.27
2022-09-21T00:19:35.316Z,1005.27
2022-09-21T00:20:35.230Z,1005.30
2022-09-21T00:21:35.190Z,1005.28
2022-09-21T00:22:35.103Z,1005.31
2022-09-21T00:23:35.051Z,1005.27
2022-09-21T00:24:34.993Z,1005.37
2022-09-21T00:25:34.910Z,1005.33
2022-09-21T00:26:34.856Z,1005.36
2022-09-21T00:27:37.863Z,1005.37
2022-09-21T00:28:34.716Z,1005.33
2022-09-21T00:29:34.659Z,1005.32
2022-09-21T00:30:34.593Z,1005.29
2022-09-21T00:31:34.577Z,1005.31
2022-09-21T00:32:34.483Z,1005.27
2022-09-21T00:33:34.413Z,1005.32
2022-09-21T00:34:34.319Z,1005.29
2022-09-21T00:35:34.249Z,1005.32
2022-09-21T00:36:34.204Z,1005.31
2022-09-21T00:37:34.119Z,1005.28
2022-09-21T00:38:34.064Z,1005.34
2022-09-21T00:39:34.013Z,1005.31
2022-09-21T00:40:33.965Z,1005.35
2022-09-21T00:41:33.860Z,1005.34
2022-09-21T00:42:33.814Z,1005.35
2022-09-21T00:43:33.741Z,1005.34
2022-09-21T00:44:33.660Z,1005.37
2022-09-21T00:45:33.626Z,1005.36
2022-09-21T00:46:33.547Z,1005.40
2022-09-21T00:47:33.467Z,1005.37
2022-09-21T00:48:33.423Z,1005.35
2022-09-21T00:49:33.350Z,1005.36
2022-09-21T00:50:33.264Z,1005.36
2022-09-21T00:51:33.247Z,1005.34
2022-09-21T00:52:33.186Z,1005.37
2022-09-21T00:53:33.087Z,1005.37
2022-09-21T00:54:33.035Z,1005.37
2022-09-21T00:55:32.959Z,1005.39
2022-09-21T00:56:32.905Z,1005.37
2022-09-21T00:57:33.578Z,1005.35
2022-09-21T00:58:32.787Z,1005.33
2022-09-21T00:59:32.692Z,1005.35
2022-09-21T01:00:32.624Z,1005.37
2022-09-21T01:01:32.587Z,1005.40
2022-09-21T01:02:32.501Z,1005.44
2022-09-21T01:03:32.447Z,1005.45
2022-09-21T01:04:32.362Z,1005.46
2022-09-21T01:05:32.309Z,1005.44
2022-09-21T01:06:32.240Z,1005.46
2022-09-21T01:07:32.207Z,1005.44
2022-09-21T01:08:32.115Z,1005.44
2022-09-21T01:09:32.837Z,1005.45
2022-09-21T01:10:31.969Z,1005.46
2022-09-21T01:11:31.923Z,1005.43
2022-09-21T01:12:31.840Z,1005.45
2022-09-21T01:13:31.759Z,1005.44
2022-09-21T01:14:31.717Z,1005.44
2022-09-21T01:15:31.943Z,1005.38
2022-09-21T01:16:31.656Z,1005.41
2022-09-21T01:17:31.496Z,1005.42
2022-09-21T01:18:31.445Z,1005.46
2022-09-21T01:19:31.406Z,1005.49
2022-09-21T01:20:31.313Z,1005.50
2022-09-21T01:21:31.247Z,1005.49
2022-09-21T01:22:31.172Z,1005.51
2022-09-21T01:23:31.124Z,1005.56
2022-09-21T01:24:31.043Z,1005.51
2022-09-21T01:25:30.997Z,1005.51
2022-09-21T01:26:30.936Z,1005.47
2022-09-21T01:27:30.861Z,1005.48
2022-09-21T01:28:30.778Z,1005.51
2022-09-21T01:29:30.728Z,1005.50
2022-09-21T01:30:30.662Z,1005.52
2022-09-21T01:31:30.648Z,1005.51
2022-09-21T01:32:30.516Z,1005.53
2022-09-21T01:33:31.664Z,1005.57
2022-09-21T01:34:30.385Z,1005.55
2022-09-21T01:35:30.324Z,1005.57
2022-09-21T01:36:30.273Z,1005.56
2022-09-21T01:37:30.218Z,1005.53
2022-09-21T01:38:30.121Z,1005.56
2022-09-21T01:39:30.872Z,1005.56
2022-09-21T01:40:35.123Z,1005.58
2022-09-21T01:41:29.968Z,1005.60
2022-09-21T01:42:29.896Z,1005.56
2022-09-21T01:43:29.828Z,1005.53
2022-09-21T01:44:29.745Z,1005.60
2022-09-21T01:45:29.776Z,1005.61
2022-09-21T01:46:29.638Z,1005.59
2022-09-21T01:47:29.569Z,1005.58
2022-09-21T01:48:29.471Z,1005.59
2022-09-21T01:49:29.412Z,1005.58
2022-09-21T01:50:29.339Z,1005.59
2022-09-21T01:51:30.071Z,1005.58
2022-09-21T01:52:29.224Z,1005.59
2022-09-21T01:53:29.138Z,1005.55
2022-09-21T01:54:29.104Z,1005.55
2022-09-21T01:55:29.023Z,1005.59
2022-09-21T01:56:28.954Z,1005.55
2022-09-21T01:57:30.443Z,1005.57
2022-09-21T01:58:28.822Z,1005.57
2022-09-21T01:59:28.749Z,1005.59
2022-09-21T02:00:28.745Z,1005.58
2022-09-21T02:01:28.654Z,1005.59
2022-09-21T02:02:28.566Z,1005.56
2022-09-21T02:03:28.533Z,1005.53
2022-09-21T02:04:28.449Z,1005.54
2022-09-21T02:05:28.355Z,1005.52
2022-09-21T02:06:28.296Z,1005.56
2022-09-21T02:07:28.252Z,1005.59
2022-09-21T02:08:28.217Z,1005.55
2022-09-21T02:09:28.106Z,1005.57
2022-09-21T02:10:28.035Z,1005.60
2022-09-21T02:11:27.963Z,1005.60
2022-09-21T02:12:27.916Z,1005.62
2022-09-21T02:13:27.856Z,1005.66
2022-09-21T02:14:27.790Z,1005.60
2022-09-21T02:15:28.905Z,1005.64
2022-09-21T02:16:27.715Z,1005.66
2022-09-21T02:17:27.576Z,1005.64
2022-09-21T02:18:27.531Z,1005.62
2022-09-21T02:19:27.471Z,1005.64
2022-09-21T02:20:27.399Z,1005.62
2022-09-21T02:21:27.682Z,1005.62
2022-09-21T02:22:27.253Z,1005.57
2022-09-21T02:23:27.187Z,1005.61
2022-09-21T02:24:27.124Z,1005.60
2022-09-21T02:25:27.068Z,1005.60
2022-09-21T02:26:27.009Z,1005.58
2022-09-21T02:27:26.959Z,1005.60
2022-09-21T02:28:26.864Z,1005.58
2022-09-21T02:29:26.797Z,1005.58
2022-09-21T02:30:26.733Z,1005.61
2022-09-21T02:31:26.688Z,1005.63
2022-09-21T02:32:26.605Z,1005.62
2022-09-21T02:33:27.741Z,1005.63
2022-09-21T02:34:26.455Z,1005.62
2022-09-21T02:35:26.385Z,1005.61
2022-09-21T02:36:26.341Z,1005.62
2022-09-21T02:37:26.270Z,1005.63
2022-09-21T02:38:26.199Z,1005.59
2022-09-21T02:39:26.167Z,1005.61
2022-09-21T02:40:26.077Z,1005.59
2022-09-21T02:41:26.010Z,1005.58
2022-09-21T02:42:25.955Z,1005.58
2022-09-21T02:43:25.896Z,1005.57
2022-09-21T02:44:25.797Z,1005.58
2022-09-21T02:45:25.740Z,1005.57
2022-09-21T02:46:25.706Z,1005.60
2022-09-21T02:47:25.635Z,1005.54
2022-09-21T02:48:25.559Z,1005.58
2022-09-21T02:49:25.488Z,1005.59
2022-09-21T02:50:25.417Z,1005.59
2022-09-21T02:51:25.371Z,1005.62
2022-09-21T02:52:25.988Z,1005.60
2022-09-21T02:53:25.246Z,1005.59
2022-09-21T02:54:25.178Z,1005.58
2022-09-21T02:55:25.103Z,1005.59
2022-09-21T02:56:25.056Z,1005.58
2022-09-21T02:57:27.985Z,1005.57
2022-09-21T02:58:24.897Z,1005.60
2022-09-21T02:59:24.823Z,1005.59
2022-09-21T03:00:24.777Z,1005.58
2022-09-21T03:01:24.712Z,1005.60
2022-09-21T03:02:24.636Z,1005.55
2022-09-21T03:03:24.585Z,1005.55
2022-09-21T03:04:24.522Z,1005.58
2022-09-21T03:05:24.461Z,1005.59
2022-09-21T03:06:24.383Z,1005.60
2022-09-21T03:07:24.322Z,1005.65
2022-09-21T03:08:24.264Z,1005.62
2022-09-21T03:09:24.206Z,1005.62
2022-09-21T03:10:24.120Z,1005.62
2022-09-21T03:11:24.035Z,1005.65
2022-09-21T03:12:23.972Z,1005.62
2022-09-21T03:13:23.909Z,1005.63
2022-09-21T03:14:23.870Z,1005.62
2022-09-21T03:15:23.786Z,1005.63
2022-09-21T03:16:23.749Z,1005.65
2022-09-21T03:17:23.644Z,1005.61
2022-09-21T03:18:23.610Z,1005.65
2022-09-21T03:19:23.508Z,1005.65
2022-09-21T03:20:23.468Z,1005.64
2022-09-21T03:21:24.902Z,1005.66
2022-09-21T03:22:23.339Z,1005.68
2022-09-21T03:23:23.255Z,1005.67
2022-09-21T03:24:23.194Z,1005.68
2022-09-21T03:25:23.137Z,1005.66
2022-09-21T03:26:23.051Z,1005.69
2022-09-21T03:27:24.051Z,1005.70
2022-09-21T03:28:22.909Z,1005.72
2022-09-21T03:29:22.839Z,1005.71
2022-09-21T03:30:22.792Z,1005.72
2022-09-21T03:31:22.832Z,1005.71
2022-09-21T03:32:22.687Z,1005.76
2022-09-21T03:33:22.596Z,1005.77
2022-09-21T03:34:22.529Z,1005.78
2022-09-21T03:35:22.454Z,1005.75
2022-09-21T03:36:22.383Z,1005.79
2022-09-21T03:37:22.337Z,1005.74
2022-09-21T03:38:22.269Z,1005.74
2022-09-21T03:39:22.219Z,1005.73
2022-09-21T03:40:22.167Z,1005.78
2022-09-21T03:41:22.064Z,1005.71
2022-09-21T03:42:22.003Z,1005.72
2022-09-21T03:43:21.920Z,1005.77
2022-09-21T03:44:21.872Z,1005.77
2022-09-21T03:45:21.824Z,1005.75
2022-09-21T03:46:21.768Z,1005.77
2022-09-21T03:47:21.677Z,1005.79
2022-09-21T03:48:21.613Z,1005.77
2022-09-21T03:49:21.540Z,1005.82
2022-09-21T03:50:21.461Z,1005.83
2022-09-21T03:51:21.427Z,1005.83
2022-09-21T03:52:21.345Z,1005.86
2022-09-21T03:53:21.270Z,1005.83
2022-09-21T03:54:21.223Z,1005.80
2022-09-21T03:55:21.173Z,1005.81
2022-09-21T03:56:21.071Z,1005.81
2022-09-21T03:57:23.351Z,1005.77
2022-09-21T03:58:20.942Z,1005.80
2022-09-21T03:59:20.876Z,1005.75
2022-09-21T04:00:20.818Z,1005.82
2022-09-21T04:01:20.807Z,1005.75
2022-09-21T04:02:20.740Z,1005.78
2022-09-21T04:03:20.663Z,1005.77
2022-09-21T04:04:20.541Z,1005.79
2022-09-21T04:05:20.490Z,1005.81
2022-09-21T04:06:20.443Z,1005.79
2022-09-21T04:07:20.344Z,1005.80
2022-09-21T04:08:20.280Z,1005.80
2022-09-21T04:09:20.245Z,1005.81
2022-09-21T04:10:20.173Z,1005.81
2022-09-21T04:11:20.111Z,1005.83
2022-09-21T04:12:20.060Z,1005.83
2022-09-21T04:13:19.960Z,1005.82
2022-09-21T04:14:19.906Z,1005.86
2022-09-21T04:15:19.879Z,1005.83
2022-09-21T04:16:19.798Z,1005.84
2022-09-21T04:17:19.710Z,1005.87
2022-09-21T04:18:19.653Z,1005.86
2022-09-21T04:19:19.580Z,1005.86
2022-09-21T04:20:19.543Z,1005.85
2022-09-21T04:21:19.481Z,1005.80
2022-09-21T04:22:19.408Z,1005.84
2022-09-21T04:23:19.322Z,1005.83
2022-09-21T04:24:19.249Z,1005.80
2022-09-21T04:25:19.184Z,1005.85
2022-09-21T04:26:19.119Z,1005.85
2022-09-21T04:27:19.819Z,1005.80
2022-09-21T04:28:19.007Z,1005.84
2022-09-21T04:29:18.917Z,1005.81
2022-09-21T04:30:18.852Z,1005.84
2022-09-21T04:31:18.929Z,1005.86
2022-09-21T04:32:18.744Z,1005.83
2022-09-21T04:33:21.238Z,1005.81
2022-09-21T04:34:18.586Z,1005.86
2022-09-21T04:35:18.512Z,1005.83
2022-09-21T04:36:18.485Z,1005.86
2022-09-21T04:37:18.395Z,1005.83
2022-09-21T04:38:18.328Z,1005.81
2022-09-21T04:39:18.258Z,1005.82
2022-09-21T04:40:18.252Z,1005.83
2022-09-21T04:41:18.094Z,1005.84
2022-09-21T04:42:18.083Z,1005.79
2022-09-21T04:43:22.505Z,1005.83
2022-09-21T04:44:17.879Z,1005.80
2022-09-21T04:45:17.829Z,1005.80
2022-09-21T04:46:17.797Z,1005.78
2022-09-21T04:47:17.702Z,1005.80
2022-09-21T04:48:17.625Z,1005.82
2022-09-21T04:49:17.583Z,1005.80
2022-09-21T04:50:17.511Z,1005.83
2022-09-21T04:51:18.195Z,1005.79
2022-09-21T04:52:19.224Z,1005.82
2022-09-21T04:53:17.290Z,1005.81
2022-09-21T04:54:17.255Z,1005.82
2022-09-21T04:55:17.162Z,1005.88
2022-09-21T04:56:17.094Z,1005.84
2022-09-21T04:57:17.028Z,1005.82
2022-09-21T04:58:19.284Z,1005.84
2022-09-21T04:59:16.918Z,1005.89
2022-09-21T05:00:16.827Z,1005.88
2022-09-21T05:01:16.833Z,1005.87
2022-09-21T05:02:16.683Z,1005.94
2022-09-21T05:03:18.996Z,1006.00
2022-09-21T05:04:16.590Z,1005.94
2022-09-21T05:05:16.491Z,1005.98
2022-09-21T05:06:16.435Z,1005.96
2022-09-21T05:07:16.371Z,1006.02
2022-09-21T05:08:16.317Z,1005.99
2022-09-21T05:09:16.510Z,1005.97
2022-09-21T05:10:16.155Z,1005.98
2022-09-21T05:11:16.097Z,1006.02
2022-09-21T05:12:16.057Z,1006.01
2022-09-21T05:13:19.699Z,1006.07
2022-09-21T05:14:15.946Z,1006.04
2022-09-21T05:15:17.397Z,1006.09
2022-09-21T05:16:15.808Z,1006.07
2022-09-21T05:17:16.528Z,1006.05
2022-09-21T05:18:15.666Z,1006.08
2022-09-21T05:19:15.583Z,1006.06
2022-09-21T05:20:15.519Z,1006.09
2022-09-21T05:21:17.885Z,1006.08
2022-09-21T05:22:15.403Z,1006.11
2022-09-21T05:23:16.914Z,1006.12
2022-09-21T05:24:15.275Z,1006.14
2022-09-21T05:25:15.176Z,1006.09
2022-09-21T05:26:15.145Z,1006.18
2022-09-21T05:27:15.052Z,1006.18
2022-09-21T05:28:15.016Z,1006.17
2022-09-21T05:29:15.220Z,1006.15
2022-09-21T05:30:14.865Z,1006.21
2022-09-21T05:31:18.152Z,1006.19
2022-09-21T05:32:14.753Z,1006.16
2022-09-21T05:33:14.680Z,1006.13
2022-09-21T05:34:14.582Z,1006.22
2022-09-21T05:35:14.563Z,1006.18
2022-09-21T05:36:14.481Z,1006.23
2022-09-21T05:37:14.387Z,1006.20
2022-09-21T05:38:14.967Z,1006.21
2022-09-21T05:39:17.455Z,1006.22
2022-09-21T05:40:14.239Z,1006.24
2022-09-21T05:41:14.148Z,1006.25
2022-09-21T05:42:14.078Z,1006.25
2022-09-21T05:43:14.005Z,1006.26
2022-09-21T05:44:13.945Z,1006.28
2022-09-21T05:45:13.895Z,1006.31
2022-09-21T05:46:13.844Z,1006.35
2022-09-21T05:47:13.744Z,1006.36
2022-09-21T05:48:13.706Z,1006.33
2022-09-21T05:49:13.603Z,1006.34
2022-09-21T05:50:13.543Z,1006.33
2022-09-21T05:51:13.485Z,1006.37
2022-09-21T05:52:13.424Z,1006.40
2022-09-21T05:53:13.339Z,1006.37
2022-09-21T05:54:13.285Z,1006.36
2022-09-21T05:55:13.199Z,1006.36
2022-09-21T05:56:13.156Z,1006.36
2022-09-21T05:57:13.082Z,1006.41
2022-09-21T05:58:13.022Z,1006.40
2022-09-21T05:59:12.959Z,1006.44
2022-09-21T06:00:12.890Z,1006.39
2022-09-21T06:01:12.872Z,1006.42
2022-09-21T06:02:12.820Z,1006.45
2022-09-21T06:03:17.411Z,1006.43
2022-09-21T06:04:12.634Z,1006.45
2022-09-21T06:05:12.570Z,1006.42
2022-09-21T06:06:12.496Z,1006.44
2022-09-21T06:07:12.420Z,1006.50
2022-09-21T06:08:12.369Z,1006.47
2022-09-21T06:09:12.346Z,1006.42
2022-09-21T06:10:12.220Z,1006.47
2022-09-21T06:11:13.078Z,1006.45
2022-09-21T06:12:12.128Z,1006.46
2022-09-21T06:13:12.034Z,1006.47
2022-09-21T06:14:11.994Z,1006.46
2022-09-21T06:15:12.711Z,1006.51
2022-09-21T06:16:11.849Z,1006.52
2022-09-21T06:17:11.758Z,1006.53
2022-09-21T06:18:16.944Z,1006.55
2022-09-21T06:19:11.652Z,1006.54
2022-09-21T06:20:11.579Z,1006.55
2022-09-21T06:21:11.538Z,1006.56
2022-09-21T06:22:11.462Z,1006.60
2022-09-21T06:23:11.491Z,1006.55
2022-09-21T06:24:11.315Z,1006.61
2022-09-21T06:25:11.246Z,1006.63
2022-09-21T06:26:11.188Z,1006.63
2022-09-21T06:27:12.672Z,1006.61
2022-09-21T06:28:11.059Z,1006.60
2022-09-21T06:29:10.989Z,1006.59
2022-09-21T06:30:10.905Z,1006.61
2022-09-21T06:31:10.912Z,1006.60
2022-09-21T06:32:10.810Z,1006.57
2022-09-21T06:33:11.516Z,1006.60
2022-09-21T06:34:10.645Z,1006.64
2022-09-21T06:35:10.621Z,1006.59
2022-09-21T06:36:10.540Z,1006.61
2022-09-21T06:37:10.459Z,1006.62
2022-09-21T06:38:10.398Z,1006.57
2022-09-21T06:39:11.145Z,1006.61
2022-09-21T06:40:10.353Z,1006.58
2022-09-21T06:41:10.202Z,1006.58
2022-09-21T06:42:10.160Z,1006.56
2022-09-21T06:43:10.055Z,1006.55
2022-09-21T06:44:10.015Z,1006.56
2022-09-21T06:45:09.963Z,1006.55
2022-09-21T06:46:09.901Z,1006.54
2022-09-21T06:47:09.805Z,1006.57
2022-09-21T06:48:09.741Z,1006.59
2022-09-21T06:49:09.687Z,1006.56
2022-09-21T06:50:09.610Z,1006.58
2022-09-21T06:51:11.086Z,1006.58
2022-09-21T06:52:09.518Z,1006.59
2022-09-21T06:53:09.419Z,1006.61
2022-09-21T06:54:09.350Z,1006.62
2022-09-21T06:55:09.316Z,1006.63
2022-09-21T06:56:09.206Z,1006.60
2022-09-21T06:57:09.960Z,1006.61
2022-09-21T06:58:09.089Z,1006.67
2022-09-21T06:59:09.018Z,1006.62
2022-09-21T07:00:09.993Z,1006.64
2022-09-21T07:01:09.401Z,1006.63
2022-09-21T07:02:10.309Z,1006.67
2022-09-21T07:03:09.756Z,1006.67
2022-09-21T07:04:08.719Z,1006.66
2022-09-21T07:05:08.619Z,1006.66
2022-09-21T07:06:08.551Z,1006.63
2022-09-21T07:07:08.505Z,1006.68
2022-09-21T07:10:05.100Z,1006.70
2022-09-21T07:10:14.738Z,1006.63
2022-09-21T07:10:21.775Z,1006.68
2022-09-21T07:11:20.022Z,1006.72
2022-09-21T07:12:19.918Z,1006.72
2022-09-21T07:13:19.878Z,1006.74
2022-09-21T07:14:19.963Z,1006.72
2022-09-21T07:15:19.781Z,1006.75
2022-09-21T07:16:19.794Z,1006.76
2022-09-21T07:17:19.607Z,1006.76
2022-09-21T07:18:19.525Z,1006.76
2022-09-21T07:19:19.467Z,1006.81
2022-09-21T07:20:19.383Z,1006.81
2022-09-21T07:21:20.129Z,1006.79
2022-09-21T07:22:19.262Z,1006.79
2022-09-21T07:23:19.199Z,1006.78
2022-09-21T07:24:19.164Z,1006.80
2022-09-21T07:25:19.115Z,1006.78
2022-09-21T07:26:19.015Z,1006.79
2022-09-21T07:27:18.981Z,1006.74
2022-09-21T07:28:18.892Z,1006.76
2022-09-21T07:29:18.839Z,1006.75
2022-09-21T07:30:18.752Z,1006.73
2022-09-21T07:31:18.790Z,1006.73
2022-09-21T07:32:18.604Z,1006.77
2022-09-21T07:33:19.336Z,1006.75
2022-09-21T07:34:18.483Z,1006.77
2022-09-21T07:35:18.425Z,1006.77
2022-09-21T07:36:18.365Z,1006.76
2022-09-21T07:37:18.307Z,1006.77
2022-09-21T07:38:18.220Z,1006.76
2022-09-21T07:39:18.168Z,1006.77
2022-09-21T07:40:20.829Z,1006.77
2022-09-21T07:41:18.047Z,1006.79
2022-09-21T07:42:17.976Z,1006.78
2022-09-21T07:43:17.901Z,1006.78
2022-09-21T07:44:17.858Z,1006.77
2022-09-21T07:45:19.276Z,1006.76
2022-09-21T07:46:17.686Z,1006.75
2022-09-21T07:47:17.625Z,1006.72
2022-09-21T07:48:17.570Z,1006.76
2022-09-21T07:49:17.500Z,1006.76
2022-09-21T07:50:17.440Z,1006.80
2022-09-21T07:51:18.177Z,1006.78
2022-09-21T07:52:17.312Z,1006.73
2022-09-21T07:53:17.249Z,1006.75
2022-09-21T07:54:17.178Z,1006.76
2022-09-21T07:55:17.101Z,1006.76
2022-09-21T07:56:17.033Z,1006.79
2022-09-21T07:57:16.988Z,1006.77
2022-09-21T07:58:16.899Z,1006.76
2022-09-21T07:59:16.876Z,1006.80
2022-09-21T08:00:16.805Z,1006.83
2022-09-21T08:01:18.062Z,1006.80
2022-09-21T08:02:17.605Z,1006.80
2022-09-21T08:03:18.173Z,1006.82
2022-09-21T08:04:16.530Z,1006.86
2022-09-21T08:05:16.454Z,1006.85
2022-09-21T08:06:16.413Z,1006.83
2022-09-21T08:07:16.334Z,1006.82
2022-09-21T08:08:16.264Z,1006.84
2022-09-21T08:09:17.739Z,1006.86
2022-09-21T08:10:16.166Z,1006.84
2022-09-21T08:11:16.094Z,1006.85
2022-09-21T08:12:16.006Z,1006.89
2022-09-21T08:13:15.936Z,1006.88
2022-09-21T08:14:15.870Z,1006.87
2022-09-21T08:15:36.979Z,1006.88
2022-09-21T08:16:15.849Z,1006.93
2022-09-21T08:17:15.660Z,1006.90
2022-09-21T08:18:15.603Z,1006.92
2022-09-21T08:19:15.545Z,1006.89
2022-09-21T08:20:15.471Z,1006.94
2022-09-21T08:21:15.933Z,1006.94
2022-09-21T08:22:15.373Z,1006.94
2022-09-21T08:23:15.270Z,1006.96
2022-09-21T08:24:15.236Z,1006.95
2022-09-21T08:25:15.137Z,1007.00
2022-09-21T08:26:15.075Z,1006.96
2022-09-21T08:27:15.811Z,1006.95
2022-09-21T08:28:14.950Z,1006.94
2022-09-21T08:29:14.910Z,1006.92
2022-09-21T08:30:14.808Z,1006.96
2022-09-21T08:31:14.811Z,1006.92
2022-09-21T08:32:32.957Z,1006.97
2022-09-21T08:33:14.640Z,1006.96
2022-09-21T08:34:14.552Z,1006.96
2022-09-21T08:35:14.483Z,1006.95
2022-09-21T08:36:14.412Z,1006.98
2022-09-21T08:37:14.368Z,1006.99
2022-09-21T08:38:14.302Z,1007.00
2022-09-21T08:39:14.281Z,1006.98
2022-09-21T08:40:14.208Z,1007.01
2022-09-21T08:41:14.111Z,1007.02
2022-09-21T08:42:14.067Z,1007.02
2022-09-21T08:43:14.000Z,1007.06
2022-09-21T08:44:13.907Z,1007.02
2022-09-21T08:45:13.979Z,1006.98
2022-09-21T08:46:13.860Z,1006.99
2022-09-21T08:47:13.721Z,1007.00
2022-09-21T08:48:13.643Z,1007.07
2022-09-21T08:49:13.605Z,1007.01
2022-09-21T08:50:13.519Z,1007.04
2022-09-21T08:51:15.851Z,1007.02
2022-09-21T08:52:16.245Z,1007.00
2022-09-21T08:53:13.319Z,1007.03
2022-09-21T08:54:13.270Z,1007.03
2022-09-21T08:55:17.447Z,1007.06
2022-09-21T08:56:13.155Z,1007.05
2022-09-21T08:57:13.082Z,1007.00
2022-09-21T08:58:13.014Z,1007.04
2022-09-21T08:59:12.943Z,1007.05
2022-09-21T09:00:12.845Z,1007.01
2022-09-21T09:01:12.909Z,1007.00
2022-09-21T09:02:12.787Z,1007.04
2022-09-21T09:03:12.688Z,1007.05
2022-09-21T09:04:12.589Z,1007.01
2022-09-21T09:05:12.657Z,1007.02
2022-09-21T09:06:12.496Z,1006.99
2022-09-21T09:07:12.405Z,1007.00
2022-09-21T09:08:12.923Z,1007.01
2022-09-21T09:09:13.055Z,1006.99
2022-09-21T09:10:12.232Z,1007.01
2022-09-21T09:11:12.146Z,1007.02
2022-09-21T09:12:12.065Z,1007.03
2022-09-21T09:13:12.023Z,1007.02
2022-09-21T09:14:11.972Z,1007.06
2022-09-21T09:15:12.176Z,1007.04
2022-09-21T09:16:11.866Z,1007.05
2022-09-21T09:17:11.753Z,1007.00
2022-09-21T09:18:11.720Z,1007.07
2022-09-21T09:19:12.736Z,1007.05
2022-09-21T09:20:11.583Z,1007.03
2022-09-21T09:21:11.790Z,1007.04
2022-09-21T09:22:11.446Z,1006.98
2022-09-21T09:23:11.382Z,1006.99
2022-09-21T09:24:11.322Z,1006.97
2022-09-21T09:25:11.261Z,1006.95
2022-09-21T09:26:11.173Z,1006.99
2022-09-21T09:27:11.135Z,1006.99
2022-09-21T09:28:11.030Z,1007.00
2022-09-21T09:29:11.208Z,1007.01
2022-09-21T09:30:10.974Z,1007.02
2022-09-21T09:31:10.865Z,1007.02
2022-09-21T09:32:10.801Z,1007.05
2022-09-21T09:33:10.748Z,1007.07
2022-09-21T09:34:10.681Z,1007.03
2022-09-21T09:35:10.593Z,1007.02
2022-09-21T09:36:10.524Z,1007.03
2022-09-21T09:37:10.508Z,1006.99
2022-09-21T09:38:10.410Z,1006.97
2022-09-21T09:39:11.542Z,1006.99
2022-09-21T09:40:10.301Z,1006.99
2022-09-21T09:41:10.202Z,1007.00
2022-09-21T09:42:10.147Z,1006.99
2022-09-21T09:43:10.078Z,1007.01
2022-09-21T09:44:10.030Z,1006.93
2022-09-21T09:45:09.979Z,1006.95
2022-09-21T09:46:13.000Z,1006.94
2022-09-21T09:47:09.810Z,1006.95
2022-09-21T09:48:09.756Z,1006.98
2022-09-21T09:49:09.683Z,1006.89
2022-09-21T09:50:09.601Z,1006.91
2022-09-21T09:51:09.572Z,1006.84
2022-09-21T09:52:09.480Z,1006.90
2022-09-21T09:53:09.410Z,1006.88
2022-09-21T09:54:10.442Z,1006.87
2022-09-21T09:55:09.280Z,1006.86
2022-09-21T09:56:09.246Z,1006.83
2022-09-21T09:57:10.418Z,1006.84
2022-09-21T09:58:09.092Z,1006.83
2022-09-21T09:59:09.133Z,1006.87
2022-09-21T10:00:08.976Z,1006.77
2022-09-21T10:01:08.916Z,1006.83
2022-09-21T10:02:08.954Z,1006.80
2022-09-21T10:03:08.779Z,1006.77
2022-09-21T10:04:08.839Z,1006.87
2022-09-21T10:05:08.614Z,1006.81
2022-09-21T10:06:08.547Z,1006.80
2022-09-21T10:07:08.509Z,1006.78
2022-09-21T10:08:08.438Z,1006.76
2022-09-21T10:09:08.470Z,1006.72
2022-09-21T10:10:08.308Z,1006.74
2022-09-21T10:11:08.264Z,1006.75
2022-09-21T10:12:10.419Z,1006.77
2022-09-21T10:13:08.119Z,1006.80
2022-09-21T10:14:08.075Z,1006.81
2022-09-21T10:15:08.003Z,1006.75
2022-09-21T10:16:08.882Z,1006.81
2022-09-21T10:17:07.887Z,1006.76
2022-09-21T10:18:07.782Z,1006.77
2022-09-21T10:19:07.745Z,1006.77
2022-09-21T10:20:07.660Z,1006.73
2022-09-21T10:21:07.622Z,1006.70
2022-09-21T10:22:07.556Z,1006.64
2022-09-21T10:23:07.470Z,1006.68
2022-09-21T10:24:07.386Z,1006.66
2022-09-21T10:25:07.394Z,1006.63
2022-09-21T10:26:07.299Z,1006.62
2022-09-21T10:27:07.305Z,1006.62
2022-09-21T10:28:07.124Z,1006.62
2022-09-21T10:29:07.285Z,1006.64
2022-09-21T10:30:06.996Z,1006.57
2022-09-21T10:31:07.006Z,1006.60
2022-09-21T10:32:11.130Z,1006.56
2022-09-21T10:33:06.843Z,1006.55
2022-09-21T10:34:06.877Z,1006.53
2022-09-21T10:35:06.670Z,1006.54
2022-09-21T10:36:06.647Z,1006.51
2022-09-21T10:37:06.557Z,1006.52
2022-09-21T10:38:07.414Z,1006.50
2022-09-21T10:39:07.732Z,1006.49
2022-09-21T10:40:06.406Z,1006.48
2022-09-21T10:41:06.328Z,1006.48
2022-09-21T10:42:06.252Z,1006.48
2022-09-21T10:43:06.194Z,1006.44
2022-09-21T10:44:06.143Z,1006.49
2022-09-21T10:45:06.126Z,1006.44
2022-09-21T10:46:06.059Z,1006.48
2022-09-21T10:47:05.948Z,1006.44
2022-09-21T10:48:05.846Z,1006.48
2022-09-21T10:49:05.939Z,1006.49
2022-09-21T10:50:05.743Z,1006.48
2022-09-21T10:51:05.703Z,1006.48
2022-09-21T10:52:05.600Z,1006.45
2022-09-21T10:53:05.542Z,1006.45
2022-09-21T10:54:05.516Z,1006.44
2022-09-21T10:55:05.395Z,1006.42
2022-09-21T10:56:22.363Z,1006.38
2022-09-21T10:57:06.072Z,1006.38
2022-09-21T10:58:05.186Z,1006.41
2022-09-21T10:59:05.134Z,1006.35
2022-09-21T11:00:05.103Z,1006.37
2022-09-21T11:01:05.210Z,1006.42
2022-09-21T11:02:05.030Z,1006.37
2022-09-21T11:03:08.730Z,1006.39
2022-09-21T11:04:04.939Z,1006.33
2022-09-21T11:05:04.753Z,1006.33
2022-09-21T11:06:04.748Z,1006.32
2022-09-21T11:07:04.651Z,1006.29
2022-09-21T11:08:04.570Z,1006.29
2022-09-21T11:09:04.519Z,1006.32
2022-09-21T11:10:04.423Z,1006.30
2022-09-21T11:11:04.378Z,1006.27
2022-09-21T11:12:04.292Z,1006.28
2022-09-21T11:13:04.248Z,1006.29
2022-09-21T11:14:04.172Z,1006.26
2022-09-21T11:15:04.138Z,1006.34
2022-09-21T11:16:04.111Z,1006.33
2022-09-21T11:17:03.989Z,1006.31
2022-09-21T11:18:03.915Z,1006.31
2022-09-21T11:19:03.880Z,1006.32
2022-09-21T11:20:03.785Z,1006.35
2022-09-21T11:21:04.053Z,1006.33
2022-09-21T11:22:03.682Z,1006.33
2022-09-21T11:23:03.596Z,1006.27
2022-09-21T11:24:03.514Z,1006.30
2022-09-21T11:25:03.495Z,1006.29
2022-09-21T11:26:03.461Z,1006.31
2022-09-21T11:27:04.659Z,1006.25
2022-09-21T11:28:03.288Z,1006.25
2022-09-21T11:29:03.224Z,1006.25
2022-09-21T11:30:03.164Z,1006.24
2022-09-21T11:31:03.089Z,1006.21
2022-09-21T11:32:05.914Z,1006.25
2022-09-21T11:33:03.703Z,1006.22
2022-09-21T11:34:02.898Z,1006.21
2022-09-21T11:35:02.834Z,1006.19
2022-09-21T11:36:02.767Z,1006.21
2022-09-21T11:37:02.683Z,1006.21
2022-09-21T11:38:02.638Z,1006.17
2022-09-21T11:39:02.576Z,1006.18
2022-09-21T11:40:02.607Z,1006.22
2022-09-21T11:41:02.446Z,1006.21
2022-09-21T11:42:02.373Z,1006.18
2022-09-21T11:43:02.318Z,1006.15
2022-09-21T11:44:03.383Z,1006.19
2022-09-21T11:45:03.403Z,1006.21
2022-09-21T11:46:03.960Z,1006.18
2022-09-21T11:47:03.459Z,1006.17
2022-09-21T11:48:01.984Z,1006.16
2022-09-21T11:49:01.908Z,1006.13
2022-09-21T11:50:26.495Z,1006.15
2022-09-21T11:51:02.598Z,1006.16
2022-09-21T11:52:01.737Z,1006.08
2022-09-21T11:53:01.666Z,1006.07
2022-09-21T11:54:01.591Z,1006.05
2022-09-21T11:55:01.500Z,1006.02
2022-09-21T11:56:01.487Z,1006.01
2022-09-21T11:57:01.402Z,1006.00
2022-09-21T11:58:01.307Z,1006.03
2022-09-21T11:59:01.261Z,1005.99
2022-09-21T12:00:01.185Z,1005.97
2022-09-21T12:01:01.159Z,1005.96
2022-09-21T12:02:01.099Z,1005.89
2022-09-21T12:03:01.023Z,1005.87
2022-09-21T12:04:00.942Z,1005.89
2022-09-21T12:05:00.855Z,1005.89